Terminal Aerodrome Forecast
Issued by NWS

Home | Current Version | Previous Version | Graphics & Text | Print | Product List | Glossary On
Versions: 1 2 3 4 5 6 7 8 9 10 11 12 13
000
FTUS43 KBIS 271217 AAA
TAFDIK
TAF AMD
KDIK 271217Z 2712/2812 08008KT 2SM BR SCT002 BKN250
      TEMPO 2712/2714 1/2SM FG OVC002
     FM271400 08004KT P6SM BKN250
     FM272100 15005KT P6SM SCT250
     FM280600 20008KT P6SM SKC=

USA.gov is the U.S. government's official web portal to all federal, state and local government web resources and services.